Maritime Polaris — 9V2825 — position and weather

sailwx.info

Track history (hours):
 
Tides and Currents Weather Stations Pressure Air Temp Water Temp Dewpoint Dewpoint Depression Visibility Wind Speed Wind Dir Waves Ship Positions

Maritime Polaris

Last reported at 2018-Jun-24 16:33 UTC. Time now 2018-Jun-24 18:49 UTC.
Position N 21°34' E 072°27'.

Length 183 m; draft 11.4 m.

Type: Tanker. MMSI: 566762000.

Date/timePositionNaut miles runAvg speedWind from/ knotsBaromVisibWave heightAir tempDewpointWater temp
2018-Jun-24 16:33N 21°34' E 072°27'111.9
2018-Jun-24 16:28N 21°33' E 072°27'611.6
2018-Jun-24 15:56N 21°27' E 072°26'512.0
2018-Jun-24 15:29N 21°23' E 072°22'612.4
2018-Jun-24 15:00N 21°18' E 072°19'611.4
2018-Jun-24 14:29N 21°12' E 072°16'610.4
2018-Jun-24 13:56N 21°07' E 072°14'510.6
2018-Jun-24 13:30N 21°03' E 072°11'510.2
2018-Jun-24 13:00N 20°59' E 072°09'5 9.9
2018-Jun-24 12:30N 20°54' E 072°07'5 9.4
2018-Jun-24 11:58N 20°49' E 072°06'  
2018-Jun-20 03:11N 21°59' E 068°42'7212.7
2018-Jun-19 21:31N 20°48' E 068°30'211.2
2018-Jun-19 21:21N 20°48' E 068°32'511.3
2018-Jun-19 20:54N 20°47' E 068°37'410.9
2018-Jun-19 20:30N 20°46' E 068°42'511.1
2018-Jun-19 20:00N 20°45' E 068°48'611.1
2018-Jun-19 19:27N 20°44' E 068°54'18110.6
2018-Jun-19 02:17N 20°54' E 072°08'412.0
2018-Jun-19 01:55N 20°59' E 072°09'511.5
2018-Jun-19 01:30N 21°03' E 072°11'5 9.8
2018-Jun-19 00:59N 21°07' E 072°14'5 9.5
2018-Jun-19 00:29N 21°11' E 072°16'5 9.1
2018-Jun-18 23:59N 21°16' E 072°18'510.8
2018-Jun-18 23:30N 21°20' E 072°21'611.7
2018-Jun-18 22:57N 21°26' E 072°25'813.1
2018-Jun-18 22:20N 21°33' E 072°27'  
Track history (hours):
 
Tides and Currents Weather Stations Pressure Air Temp Water Temp Dewpoint Dewpoint Depression Visibility Wind Speed Wind Dir Waves Ship Positions

Maritime Polaris

Last reported at 2018-Jun-24 16:33 UTC. Time now 2018-Jun-24 18:49 UTC.
Position N 21°34' E 072°27'.

Length 183 m; draft 11.4 m.

Type: Tanker. MMSI: 566762000.

Date/timePositionNaut miles runAvg speedWind from/ knotsBaromVisibWave heightAir tempDewpointWater temp
2018-Jun-24 16:33N 21°34' E 072°27'111.9
2018-Jun-24 16:28N 21°33' E 072°27'611.6
2018-Jun-24 15:56N 21°27' E 072°26'512.0
2018-Jun-24 15:29N 21°23' E 072°22'612.4
2018-Jun-24 15:00N 21°18' E 072°19'611.4
2018-Jun-24 14:29N 21°12' E 072°16'610.4
2018-Jun-24 13:56N 21°07' E 072°14'510.6
2018-Jun-24 13:30N 21°03' E 072°11'510.2
2018-Jun-24 13:00N 20°59' E 072°09'5 9.9
2018-Jun-24 12:30N 20°54' E 072°07'5 9.4
2018-Jun-24 11:58N 20°49' E 072°06'  
2018-Jun-20 03:11N 21°59' E 068°42'7212.7
2018-Jun-19 21:31N 20°48' E 068°30'211.2
2018-Jun-19 21:21N 20°48' E 068°32'511.3
2018-Jun-19 20:54N 20°47' E 068°37'410.9
2018-Jun-19 20:30N 20°46' E 068°42'511.1
2018-Jun-19 20:00N 20°45' E 068°48'611.1
2018-Jun-19 19:27N 20°44' E 068°54'18110.6
2018-Jun-19 02:17N 20°54' E 072°08'412.0
2018-Jun-19 01:55N 20°59' E 072°09'511.5
2018-Jun-19 01:30N 21°03' E 072°11'5 9.8
2018-Jun-19 00:59N 21°07' E 072°14'5 9.5
2018-Jun-19 00:29N 21°11' E 072°16'5 9.1
2018-Jun-18 23:59N 21°16' E 072°18'510.8
2018-Jun-18 23:30N 21°20' E 072°21'611.7
2018-Jun-18 22:57N 21°26' E 072°25'813.1
2018-Jun-18 22:20N 21°33' E 072°27'  

Dump ship's entire track history